Time,TemperatureF,DewpointF,PressureIn,WindDirection,WindDirectionDegrees,WindSpeedMPH,WindSpeedGustMPH,Humidity,HourlyPrecipIn,Conditions,Clouds,dailyrainin,SolarRadiationWatts/m^2,SoftwareType,DateUTC
2013-09-08 00:01:00,66.0,51.0,-100.00,NNW,344,2.0,7.0,58,0.00,,,0.00,0.000000,,2013-09-08 04:01:00,
2013-09-08 00:43:00,66.0,51.0,-100.00,NNW,344,2.0,7.0,58,0.00,,,0.00,0.000000,,2013-09-08 04:43:00,
2013-09-08 00:54:00,66.0,51.0,-100.00,NNW,344,2.0,7.0,58,0.00,,,0.00,0.000000,,2013-09-08 04:54:00,
2013-09-08 01:01:00,65.0,50.0,-100.00,WNW,292,2.0,6.0,58,0.00,,,0.00,0.000000,,2013-09-08 05:01:00,
2013-09-08 01:23:00,65.0,50.0,-100.00,WNW,292,2.0,6.0,58,0.00,,,0.00,0.000000,,2013-09-08 05:23:00,
2013-09-08 01:34:00,65.0,50.0,-100.00,WNW,292,2.0,6.0,58,0.00,,,0.00,0.000000,,2013-09-08 05:34:00,
2013-09-08 01:43:00,65.0,50.0,-100.00,WNW,292,2.0,6.0,58,0.00,,,0.00,0.000000,,2013-09-08 05:43:00,
2013-09-08 01:52:00,65.0,50.0,-100.00,WNW,292,2.0,6.0,58,0.00,,,0.00,0.000000,,2013-09-08 05:52:00,
2013-09-08 02:01:00,61.0,50.0,-100.00,South,183,2.0,7.0,68,0.00,,,0.00,0.000000,,2013-09-08 06:01:00,
2013-09-08 02:22:00,61.0,50.0,-100.00,South,183,2.0,7.0,68,0.00,,,0.00,0.000000,,2013-09-08 06:22:00,
2013-09-08 02:33:00,61.0,50.0,-100.00,South,183,2.0,7.0,68,0.00,,,0.00,0.000000,,2013-09-08 06:33:00,
2013-09-08 02:42:00,61.0,50.0,-100.00,South,183,2.0,7.0,68,0.00,,,0.00,0.000000,,2013-09-08 06:42:00,
2013-09-08 02:53:00,61.0,50.0,-100.00,South,183,2.0,7.0,68,0.00,,,0.00,0.000000,,2013-09-08 06:53:00,
2013-09-08 03:01:00,64.0,52.0,-100.00,ENE,78,3.0,8.0,65,0.00,,,0.00,0.000000,,2013-09-08 07:01:00,
2013-09-08 03:42:00,64.0,52.0,-100.00,ENE,78,3.0,8.0,65,0.00,,,0.00,0.000000,,2013-09-08 07:42:00,
2013-09-08 03:52:00,64.0,52.0,-100.00,ENE,78,3.0,8.0,65,0.00,,,0.00,0.000000,,2013-09-08 07:52:00,
2013-09-08 04:01:00,59.0,51.0,-100.00,South,190,2.0,7.0,76,0.00,,,0.00,0.000000,,2013-09-08 08:01:00,
2013-09-08 04:22:00,59.0,51.0,-100.00,South,190,2.0,7.0,76,0.00,,,0.00,0.000000,,2013-09-08 08:22:00,
2013-09-08 04:32:00,59.0,51.0,-100.00,South,190,2.0,7.0,76,0.00,,,0.00,0.000000,,2013-09-08 08:32:00,
2013-09-08 04:42:00,59.0,51.0,-100.00,South,190,2.0,7.0,76,0.00,,,0.00,0.000000,,2013-09-08 08:42:00,
2013-09-08 04:52:00,59.0,51.0,-100.00,South,190,2.0,7.0,76,0.00,,,0.00,0.000000,,2013-09-08 08:52:00,
2013-09-08 05:01:00,59.0,53.0,-100.00,SSE,154,2.0,5.0,80,0.00,,,0.00,0.000000,,2013-09-08 09:01:00,
2013-09-08 05:43:00,59.0,53.0,-100.00,SSE,154,2.0,5.0,80,0.00,,,0.00,0.000000,,2013-09-08 09:43:00,
2013-09-08 05:54:00,59.0,53.0,-100.00,SSE,154,2.0,5.0,80,0.00,,,0.00,0.000000,,2013-09-08 09:54:00,
2013-09-08 06:01:00,59.0,52.0,-100.00,NNE,17,3.0,5.0,78,0.00,,,0.00,0.000000,,2013-09-08 10:01:00,
2013-09-08 06:43:00,59.0,52.0,-100.00,NNE,17,3.0,5.0,78,0.00,,,0.00,0.000000,,2013-09-08 10:43:00,
2013-09-08 06:53:00,59.0,52.0,-100.00,NNE,17,3.0,5.0,78,0.00,,,0.00,0.000000,,2013-09-08 10:53:00,
2013-09-08 07:01:00,60.0,54.0,-100.00,ESE,118,2.0,4.0,81,0.00,,,0.00,0.000000,,2013-09-08 11:01:00,
2013-09-08 07:42:00,60.0,54.0,-100.00,ESE,118,2.0,4.0,81,0.00,,,0.00,0.000000,,2013-09-08 11:42:00,
2013-09-08 07:52:00,60.0,54.0,-100.00,ESE,118,2.0,4.0,81,0.00,,,0.00,0.000000,,2013-09-08 11:52:00,
2013-09-08 08:01:00,61.0,55.0,-100.00,SW,225,2.0,4.0,81,0.00,,,0.00,28.000000,,2013-09-08 12:01:00,
2013-09-08 08:42:00,61.0,55.0,-100.00,SW,225,2.0,4.0,81,0.00,,,0.00,28.000000,,2013-09-08 12:42:00,
2013-09-08 08:52:00,61.0,55.0,-100.00,SW,225,2.0,4.0,81,0.00,,,0.00,28.000000,,2013-09-08 12:52:00,
2013-09-08 09:01:00,62.0,56.0,-100.00,ENE,65,1.0,4.0,80,0.00,,,0.00,65.000000,,2013-09-08 13:01:00,
2013-09-08 09:42:00,62.0,56.0,-100.00,ENE,65,1.0,4.0,80,0.00,,,0.00,65.000000,,2013-09-08 13:42:00,
2013-09-08 09:52:00,62.0,56.0,-100.00,ENE,65,1.0,4.0,80,0.00,,,0.00,65.000000,,2013-09-08 13:52:00,
2013-09-08 10:01:00,64.0,58.0,-100.00,SSE,155,2.0,7.0,80,0.00,,,0.00,195.000000,,2013-09-08 14:01:00,
2013-09-08 10:42:00,64.0,58.0,-100.00,SSE,155,2.0,7.0,80,0.00,,,0.00,195.000000,,2013-09-08 14:42:00,
2013-09-08 10:52:00,64.0,58.0,-100.00,SSE,155,2.0,7.0,80,0.00,,,0.00,195.000000,,2013-09-08 14:52:00,
2013-09-08 11:01:00,72.0,63.0,-100.00,SSW,204,3.0,7.0,74,0.00,,,0.00,495.000000,,2013-09-08 15:01:00,
2013-09-08 11:23:00,72.0,63.0,-100.00,SSW,204,3.0,7.0,74,0.00,,,0.00,495.000000,,2013-09-08 15:23:00,
2013-09-08 11:34:00,72.0,63.0,-100.00,SSW,204,3.0,7.0,74,0.00,,,0.00,495.000000,,2013-09-08 15:34:00,
2013-09-08 11:45:00,72.0,63.0,-100.00,SSW,204,3.0,7.0,74,0.00,,,0.00,495.000000,,2013-09-08 15:45:00,
2013-09-08 11:55:00,72.0,63.0,-100.00,SSW,204,3.0,7.0,74,0.00,,,0.00,495.000000,,2013-09-08 15:55:00,
2013-09-08 12:01:00,79.0,64.0,-100.00,SSW,198,2.0,5.0,60,0.00,,,0.00,803.000000,,2013-09-08 16:01:00,
2013-09-08 12:44:00,79.0,64.0,-100.00,SSW,198,2.0,5.0,60,0.00,,,0.00,803.000000,,2013-09-08 16:44:00,
2013-09-08 12:54:00,79.0,64.0,-100.00,SSW,198,2.0,5.0,60,0.00,,,0.00,803.000000,,2013-09-08 16:54:00,
2013-09-08 13:01:00,82.0,65.0,-100.00,WNW,303,4.0,10.0,56,0.00,,,0.00,869.000000,,2013-09-08 17:01:00,
2013-09-08 13:43:00,82.0,65.0,-100.00,WNW,303,4.0,10.0,56,0.00,,,0.00,869.000000,,2013-09-08 17:43:00,
2013-09-08 13:53:00,82.0,65.0,-100.00,WNW,303,4.0,10.0,56,0.00,,,0.00,869.000000,,2013-09-08 17:53:00,
2013-09-08 14:01:00,81.0,65.0,-100.00,NNE,12,2.0,6.0,58,0.00,,,0.00,606.000000,,2013-09-08 18:01:00,
2013-09-08 14:22:00,81.0,65.0,-100.00,NNE,12,2.0,6.0,58,0.00,,,0.00,606.000000,,2013-09-08 18:22:00,
2013-09-08 14:32:00,81.0,65.0,-100.00,NNE,12,2.0,6.0,58,0.00,,,0.00,606.000000,,2013-09-08 18:32:00,
2013-09-08 14:42:00,81.0,65.0,-100.00,NNE,12,2.0,6.0,58,0.00,,,0.00,606.000000,,2013-09-08 18:42:00,
2013-09-08 14:52:00,81.0,65.0,-100.00,NNE,12,2.0,6.0,58,0.00,,,0.00,606.000000,,2013-09-08 18:52:00,
2013-09-08 15:01:00,84.0,65.0,-100.00,SSW,211,3.0,7.0,53,0.00,,,0.00,690.000000,,2013-09-08 19:01:00,
2013-09-08 15:42:00,84.0,65.0,-100.00,SSW,211,3.0,7.0,53,0.00,,,0.00,690.000000,,2013-09-08 19:42:00,
2013-09-08 15:52:00,84.0,65.0,-100.00,SSW,211,3.0,7.0,53,0.00,,,0.00,690.000000,,2013-09-08 19:52:00,
2013-09-08 16:01:00,82.0,59.0,-100.00,WNW,300,2.0,6.0,46,0.00,,,0.00,537.000000,,2013-09-08 20:01:00,
2013-09-08 16:42:00,82.0,59.0,-100.00,WNW,300,2.0,6.0,46,0.00,,,0.00,537.000000,,2013-09-08 20:42:00,
2013-09-08 16:53:00,82.0,59.0,-100.00,WNW,300,2.0,6.0,46,0.00,,,0.00,537.000000,,2013-09-08 20:53:00,
2013-09-08 17:01:00,84.0,60.0,-100.00,NW,324,3.0,6.0,45,0.00,,,0.00,583.000000,,2013-09-08 21:01:00,
2013-09-08 17:44:00,84.0,60.0,-100.00,NW,324,3.0,6.0,45,0.00,,,0.00,583.000000,,2013-09-08 21:44:00,
2013-09-08 17:54:00,84.0,60.0,-100.00,NW,324,3.0,6.0,45,0.00,,,0.00,583.000000,,2013-09-08 21:54:00,
2013-09-08 18:01:00,80.0,61.0,-100.00,North,355,3.0,8.0,52,0.00,,,0.00,258.000000,,2013-09-08 22:01:00,
2013-09-08 18:44:00,80.0,61.0,-100.00,North,355,3.0,8.0,52,0.00,,,0.00,258.000000,,2013-09-08 22:44:00,
2013-09-08 18:53:00,80.0,61.0,-100.00,North,355,3.0,8.0,52,0.00,,,0.00,258.000000,,2013-09-08 22:53:00,
2013-09-08 19:01:00,74.0,60.0,-100.00,NW,310,2.0,5.0,61,0.00,,,0.00,43.000000,,2013-09-08 23:01:00,
2013-09-08 19:22:00,74.0,60.0,-100.00,NW,310,2.0,5.0,61,0.00,,,0.00,43.000000,,2013-09-08 23:22:00,
2013-09-08 19:34:00,74.0,60.0,-100.00,NW,310,2.0,5.0,61,0.00,,,0.00,43.000000,,2013-09-08 23:34:00,
2013-09-08 19:42:00,74.0,60.0,-100.00,NW,310,2.0,5.0,61,0.00,,,0.00,43.000000,,2013-09-08 23:42:00,
2013-09-08 19:53:00,74.0,60.0,-100.00,NW,310,2.0,5.0,61,0.00,,,0.00,43.000000,,2013-09-08 23:53:00,
2013-09-08 20:01:00,73.0,59.0,-100.00,NNW,346,3.0,5.0,62,0.00,,,0.00,11.000000,,2013-09-09 00:01:00,
2013-09-08 20:22:00,73.0,59.0,-100.00,NNW,346,3.0,5.0,62,0.00,,,0.00,11.000000,,2013-09-09 00:22:00,
2013-09-08 20:32:00,73.0,59.0,-100.00,NNW,346,3.0,5.0,62,0.00,,,0.00,11.000000,,2013-09-09 00:32:00,
2013-09-08 20:42:00,73.0,59.0,-100.00,NNW,346,3.0,5.0,62,0.00,,,0.00,11.000000,,2013-09-09 00:42:00,
2013-09-08 20:52:00,73.0,59.0,-100.00,NNW,346,3.0,5.0,62,0.00,,,0.00,11.000000,,2013-09-09 00:52:00,
2013-09-08 21:01:00,72.0,60.0,-100.00,NNW,339,2.0,6.0,67,0.00,,,0.00,0.000000,,2013-09-09 01:01:00,
2013-09-08 21:42:00,72.0,60.0,-100.00,NNW,339,2.0,6.0,67,0.00,,,0.00,0.000000,,2013-09-09 01:42:00,
2013-09-08 21:52:00,72.0,60.0,-100.00,NNW,339,2.0,6.0,67,0.00,,,0.00,0.000000,,2013-09-09 01:52:00,
2013-09-08 22:01:00,71.0,61.0,-100.00,North,354,3.0,5.0,71,0.00,,,0.00,0.000000,,2013-09-09 02:01:00,
2013-09-08 22:22:00,71.0,61.0,-100.00,North,354,3.0,5.0,71,0.00,,,0.00,0.000000,,2013-09-09 02:22:00,
2013-09-08 22:32:00,71.0,61.0,-100.00,North,354,3.0,5.0,71,0.00,,,0.00,0.000000,,2013-09-09 02:32:00,
2013-09-08 22:42:00,71.0,61.0,-100.00,North,354,3.0,5.0,71,0.00,,,0.00,0.000000,,2013-09-09 02:42:00,
2013-09-08 22:53:00,71.0,61.0,-100.00,North,354,3.0,5.0,71,0.00,,,0.00,0.000000,,2013-09-09 02:53:00,
2013-09-08 23:01:00,69.0,60.0,-100.00,East,87,3.0,5.0,74,0.00,,,0.00,0.000000,,2013-09-09 03:01:00,
2013-09-08 23:22:00,69.0,60.0,-100.00,East,87,3.0,5.0,74,0.00,,,0.00,0.000000,,2013-09-09 03:22:00,
2013-09-08 23:34:00,69.0,60.0,-100.00,East,87,3.0,5.0,74,0.00,,,0.00,0.000000,,2013-09-09 03:34:00,
2013-09-08 23:44:00,69.0,60.0,-100.00,East,87,3.0,5.0,74,0.00,,,0.00,0.000000,,2013-09-09 03:44:00,
2013-09-08 23:55:00,69.0,60.0,-100.00,East,87,3.0,5.0,74,0.00,,,0.00,0.000000,,2013-09-09 03:55:00,